aviador You're here:

MMEP Decoded Metar

TEPIC in MEXICO
Report Time2017-06-23 21:50:00
UTC Time2017-06-23 22:31:19
Flight Rules vfr VFR
Wind360° at 10 kt
W.Decomp.*RWY 02: 8.8 kt HW 4.7 kt LCW
Visibility9999 m
Phenomena:N/A
Clouds:Scattered TCU 025 Hf
Expected CloudBase > 4,000 ft AGL from Temp-Dew spread
CeilingNone
Temp31°C (ISA +22)
Dew Point21°C (55% RH)
Heat Index33.7°C
QNH1013 hPa
Density Alt5,866 ft
Elevation3,025 ft
Report Wrong Elevation
Raw Report
MMEP 232150Z 36010KT 10SM SCT025TCU 31/21 A2990 RMK 8/200=

Extra information for MMEP:More info

Metar Taf Metar & Taf Last 4 Metars F.Rules Stats Wind Profile Meteogram Temp Stats Airport Information Weather charts Add Link Nearby VenuesMetar ALERT Operation Metar Decoded Social comments